Station SWXA2 - Seward Harbor, AK Image indicating link to RSS feed of recent meteorological observations for station SWXA2


Conditions at SWXA2 as of
(1:14 pm AKDT)
2114 GMT on 05/27/2024:
     

Click on the graph icon in the table below to see a time series plot of the last five days of that observation.

5-day plot - Wind Direction Wind Direction (WDIR): SE ( 140 deg true )
5-day plot - Wind Speed Wind Speed (WSPD): 16 kts
5-day plot - Wind Gust Wind Gust (GST): 20 kts
5-day plot - Air Temperature Air Temperature (ATMP): 49.3 °F
5-day plot - Dew Point Dew Point (DEWP): 43.3 °F
5-day plot - Wind Chill Wind Chill (CHILL): 43.0 °F
5-day plot - Wind Speed at 10 Meters Wind Speed at 10 meters (WSPD10M): 17 kts
5-day plot - Wind Speed at 20 Meters Wind Speed at 20 meters (WSPD20M): 17 kts
5-day plot -  Wind Speed, Wind Gust and Atmospheric Pressure Combined plot of Wind Speed, Gust, and Air Pressure
Previous observations
TIME
(AKDT)
5-day plot - Wind Direction
WDIR
 
5-day plot - Wind Speed
WSPD
kts
5-day plot - Wind Gust
GST
kts
5-day plot - Wave Height
WVHT
ft
5-day plot - Dominant Wave Period
DPD
sec
5-day plot - Average Wave Period
APD
sec
5-day plot - Mean Wave Direction
MWD
 
5-day plot - Atmospheric Pressure
PRES
in
5-day plot - Pressure Tendency
PTDY
in
5-day plot - Air Temperature
ATMP
°F
5-day plot - Water Temperature
WTMP
°F
5-day plot - Dew Point
DEWP
°F
5-day plot - Salinity
SAL
psu
5-day plot - Visibility
VIS
nmi
5-day plot - Tide (above MLLW)
TIDE
ft
2024-05-27 01:04 pmSSE 14 18------ 49.1- 43.9---
2024-05-27 12:54 pmSSE 15 19------ 49.3- 43.5---
2024-05-27 12:45 pm SE 16 19------ 49.5- 43.2---
2024-05-27 12:34 pm SE 15 20------ 49.6- 43.0---
2024-05-27 12:24 pm SE 15 20------ 49.3- 43.2---
2024-05-27 12:15 pm SE 14 17------ 49.1- 43.7---
2024-05-27 12:05 pm SE 14 17------ 48.9- 43.5---
2024-05-27 11:55 amSSE 14 17------ 48.7- 43.5---
2024-05-27 11:45 amSSE 13 16------ 48.6- 43.7---
2024-05-27 11:34 amSSE 12 16------ 49.1- 43.7---
2024-05-27 11:24 amSSE 13 16------ 48.4- 43.7---
2024-05-27 11:14 amSSE 12 15------ 48.0- 43.9---
2024-05-27 11:04 amSSE 12 16------ 47.8- 44.1---
2024-05-27 10:55 amSSE 12 14------ 47.7- 44.2---
2024-05-27 10:44 amSSE 13 16------ 47.8- 43.9---
2024-05-27 10:34 am S 12 16------ 47.7- 43.9---
2024-05-27 10:25 am S 11 16------ 48.0- 43.5---
2024-05-27 10:14 amSSE 11 15------ 47.8- 42.8---
2024-05-27 10:04 amESE 3 8------ 47.5- 42.6---
2024-05-27 09:54 amSSE 2 5------ 47.3- 42.4---
2024-05-27 09:44 amENE 2 3------ 46.8- 42.3---
2024-05-27 09:34 am SE 2 3------ 46.4- 41.5---
2024-05-27 09:24 am S 2 2------ 45.9- 41.2---
2024-05-27 09:14 am SE 2 3------ 45.9- 41.0---
2024-05-27 09:04 amESE 4 5------ 45.5- 40.6---
2024-05-27 08:55 am SE 5 6------ 44.8- 40.5---
2024-05-27 08:45 am SE 5 6------ 44.8- 40.5---
2024-05-27 08:35 am SE 3 5------ 45.0- 40.6---
2024-05-27 08:25 am SE 2 3------ 45.0- 40.8---
2024-05-27 08:14 am SE 3 4------ 45.0- 40.6---
2024-05-27 08:05 amESE 3 4------ 45.9- 41.0---
2024-05-27 07:55 am E 2 4------ 46.4- 41.5---
2024-05-27 07:44 am- 0 2------ 45.9- 41.5---
2024-05-27 07:35 am- 0 2------ 44.6- 40.6---
2024-05-27 07:24 am- 0 2------ 44.2- 40.5---
2024-05-27 07:14 am N 2 2------ 43.9- 40.3---
2024-05-27 07:04 amNNE 2 4------ 43.3- 39.9---
2024-05-27 06:54 am N 2 3------ 43.3- 39.7---
2024-05-27 06:44 am N 3 4------ 43.3- 39.7---
2024-05-27 06:34 amNNW 2 3------ 43.3- 39.7---
2024-05-27 06:24 am N 2 2------ 43.2- 39.6---
2024-05-27 06:14 amNNW 1 2------ 43.2- 39.6---
2024-05-27 06:05 am NW 1 2------ 42.8- 39.6---
2024-05-27 05:54 amNNW 2 4------ 42.6- 39.4---
2024-05-27 05:45 am N 3 4------ 42.6- 39.4---
2024-05-27 05:35 am N 3 5------ 42.6- 39.6---
2024-05-27 05:24 am N 3 4------ 42.8- 39.7---
2024-05-27 05:14 am N 2 3------ 43.2- 39.7---
2024-05-27 05:04 am N 2 3------ 43.3- 39.4---
2024-05-27 04:54 am W 2 2------ 43.2- 39.4---
2024-05-27 04:44 amNNW 2 3------ 43.3- 39.7---
2024-05-27 04:34 amNNW 1 2------ 43.7- 40.1---
2024-05-27 04:24 am N 1 3------ 43.9- 40.3---
2024-05-27 04:14 am N 1 2------ 44.1- 40.1---
2024-05-27 04:04 am- 0 2------ 44.2- 40.3---
2024-05-27 03:54 amWNW 2 2------ 44.4- 40.5---
2024-05-27 03:44 am- 0 2------ 44.6- 40.6---
2024-05-27 03:34 am- 0 2------ 44.8- 40.5---
2024-05-27 03:24 amNNW 2 3------ 44.6- 40.3---
2024-05-27 03:14 am N 2 3------ 44.4- 40.3---
2024-05-27 03:04 am N 4 6------ 44.6- 40.1---
2024-05-27 02:54 amNNW 2 4------ 45.0- 40.5---
2024-05-27 02:45 am N 1 2------ 45.1- 40.6---
2024-05-27 02:35 amNNW 2 2------ 44.8- 40.3---
2024-05-27 02:25 amWNW 2 2------ 45.0- 40.5---
2024-05-27 02:15 am W 2 2------ 45.0- 40.5---
2024-05-27 02:04 am NW 2 2------ 45.0- 40.5---
2024-05-27 01:54 amNNW 2 3------ 45.0- 40.6---
2024-05-27 01:34 amNNW 2 3------ 45.5- 40.6---
2024-05-27 01:24 am- 0 1------ 45.7- 41.2---
2024-05-27 01:14 am W 2 2------ 45.9- 41.4---
2024-05-27 01:04 am N 1 3------ 46.0- 42.3---
2024-05-27 12:54 am E 1 2------ 46.2- 41.9---
2024-05-27 12:44 amENE 2 4------ 46.8- 41.5---
2024-05-27 12:34 am- 0 2------ 47.5- 41.5---
2024-05-27 12:24 am- 0 1------ 47.7- 41.7---
2024-05-27 12:04 am S 3 6------ 48.4- 42.4---
2024-05-26 11:54 pmESE 3 5------ 48.6- 42.8---
2024-05-26 11:44 pm E 1 3------ 48.7- 42.1---
2024-05-26 11:35 pm SE 2 3------ 49.1- 41.4---
2024-05-26 11:24 pmSSE 2 3------ 49.5- 41.4---
2024-05-26 11:14 pm W 1 3------ 49.6- 41.5---
2024-05-26 11:04 pm SW 2 4------ 49.6- 41.7---
2024-05-26 10:55 pm SW 2 5------ 49.8- 41.9---
2024-05-26 10:44 pm SW 4 7------ 49.6- 41.7---
2024-05-26 10:34 pmSSW 3 7------ 49.6- 42.1---
2024-05-26 10:24 pmSSW 3 6------ 49.6- 42.6---
2024-05-26 10:14 pm S 6 9------ 49.5- 43.2---
2024-05-26 10:04 pmSSE 8 10------ 49.5- 43.7---
2024-05-26 09:54 pmSSE 9 11------ 49.5- 43.9---
2024-05-26 09:44 pmSSE 11 13------ 49.8- 43.3---
2024-05-26 09:34 pmSSE 10 13------ 50.0- 43.3---
2024-05-26 09:24 pmSSE 11 13------ 49.6- 43.7---
2024-05-26 09:14 pmSSE 11 13------ 50.2- 43.2---
2024-05-26 09:04 pmSSE 10 13------ 50.0- 43.5---
2024-05-26 08:55 pmSSE 11 13------ 50.5- 43.0---
2024-05-26 08:45 pmSSE 12 13------ 50.5- 43.0---
2024-05-26 08:35 pmSSE 12 14------ 50.4- 43.3---
2024-05-26 08:25 pmSSE 13 15------ 50.7- 42.8---
2024-05-26 08:14 pmSSE 12 15------ 50.5- 43.0---
2024-05-26 08:04 pmSSE 11 13------ 50.9- 42.8---
2024-05-26 07:54 pmSSE 11 13------ 51.1- 42.4---
2024-05-26 07:44 pmSSE 11 13------ 50.7- 42.8---
2024-05-26 07:34 pmSSE 12 13------ 50.9- 42.8---
2024-05-26 07:24 pmSSE 12 14------ 50.9- 42.8---
2024-05-26 07:14 pmSSE 12 15------ 50.7- 42.6---
2024-05-26 07:05 pmSSE 13 15------ 50.7- 42.8---
2024-05-26 06:54 pmSSE 13 16------ 50.4- 42.8---
2024-05-26 06:44 pmSSE 12 15------ 49.8- 43.7---
2024-05-26 06:34 pmSSE 14 16------ 50.4- 43.0---
2024-05-26 06:24 pmSSE 14 17------ 50.7- 42.4---
2024-05-26 06:14 pmSSE 14 18------ 50.9- 42.4---
2024-05-26 06:05 pmSSE 14 17------ 51.1- 42.6---
2024-05-26 05:55 pmSSE 13 16------ 50.9- 42.8---
2024-05-26 05:45 pmSSE 13 15------ 50.9- 42.4---
2024-05-26 05:35 pmSSE 14 16------ 51.1- 42.1---
2024-05-26 05:24 pmSSE 15 18------ 51.1- 42.1---
2024-05-26 05:14 pmSSE 16 18------ 50.9- 42.3---
2024-05-26 05:04 pmSSE 15 18------ 50.5- 42.8---
2024-05-26 04:54 pmSSE 15 18------ 50.5- 43.0---
2024-05-26 04:44 pmSSE 14 18------ 50.4- 43.0---
2024-05-26 04:34 pmSSE 13 16------ 50.4- 43.2---
2024-05-26 04:24 pmSSE 15 18------ 50.5- 42.4---
2024-05-26 04:14 pmSSE 16 18------ 50.9- 41.5---
2024-05-26 03:55 pmSSE 15 20------ 50.5- 41.9---
2024-05-26 03:44 pm S 14 17------ 50.4- 42.6---
2024-05-26 03:34 pmSSE 14 18------ 49.8- 42.8---
2024-05-26 03:24 pmSSE 14 16------ 48.7- 43.7---
2024-05-26 03:14 pmSSE 13 16------ 48.4- 43.9---
2024-05-26 03:04 pmSSE 13 16------ 48.4- 44.1---
2024-05-26 02:54 pmSSE 13 15------ 48.6- 43.5---
2024-05-26 02:45 pmSSE 12 14------ 48.6- 43.3---
2024-05-26 02:35 pmSSE 12 14------ 48.7- 43.3---
2024-05-26 02:25 pmSSE 12 14------ 48.7- 43.0---
2024-05-26 02:15 pmSSE 10 12------ 49.5- 42.6---
2024-05-26 02:04 pmSSE 11 14------ 49.5- 42.3---
2024-05-26 01:55 pmSSE 12 14------ 49.3- 42.4---
2024-05-26 01:45 pmSSE 11 14------ 48.7- 43.0---
2024-05-26 01:34 pmSSE 10 12------ 48.4- 43.2---
2024-05-26 01:24 pmSSE 9 10------ 48.7- 42.8---
2024-05-26 01:14 pmSSE 9 11------ 48.7- 42.1---
2024-05-26 01:05 pmSSE 10 12------ 48.4- 42.1---
2024-05-26 12:54 pmSSE 9 11------ 48.2- 42.3---